sensor_id;sensor_type;location;lat;lon;timestamp;temperature;humidity
10572;DHT22;5334;48.928;12.704;2023-11-22T00:01:19;5.30;99.90
10572;DHT22;5334;48.928;12.704;2023-11-22T00:04:04;5.30;99.90
10572;DHT22;5334;48.928;12.704;2023-11-22T00:06:48;5.30;99.90
10572;DHT22;5334;48.928;12.704;2023-11-22T00:09:35;5.30;99.90
10572;DHT22;5334;48.928;12.704;2023-11-22T00:12:19;5.30;99.90
10572;DHT22;5334;48.928;12.704;2023-11-22T00:15:04;5.30;99.90
10572;DHT22;5334;48.928;12.704;2023-11-22T00:17:48;5.20;99.90
10572;DHT22;5334;48.928;12.704;2023-11-22T00:20:32;5.20;99.90
10572;DHT22;5334;48.928;12.704;2023-11-22T00:23:16;5.20;99.90
10572;DHT22;5334;48.928;12.704;2023-11-22T00:26:00;5.20;99.90
10572;DHT22;5334;48.928;12.704;2023-11-22T00:28:44;5.20;99.90
10572;DHT22;5334;48.928;12.704;2023-11-22T00:31:28;5.10;99.90
10572;DHT22;5334;48.928;12.704;2023-11-22T00:34:12;5.10;99.90
10572;DHT22;5334;48.928;12.704;2023-11-22T00:36:57;5.10;99.90
10572;DHT22;5334;48.928;12.704;2023-11-22T00:39:41;5.10;99.90
10572;DHT22;5334;48.928;12.704;2023-11-22T00:42:25;5.00;99.90
10572;DHT22;5334;48.928;12.704;2023-11-22T00:45:10;4.90;99.90
10572;DHT22;5334;48.928;12.704;2023-11-22T00:47:54;4.90;99.90
10572;DHT22;5334;48.928;12.704;2023-11-22T00:50:38;4.90;99.90
10572;DHT22;5334;48.928;12.704;2023-11-22T00:53:22;4.80;99.90
10572;DHT22;5334;48.928;12.704;2023-11-22T00:56:07;4.80;99.90
10572;DHT22;5334;48.928;12.704;2023-11-22T00:58:51;4.80;99.90
10572;DHT22;5334;48.928;12.704;2023-11-22T01:01:36;4.80;99.90
10572;DHT22;5334;48.928;12.704;2023-11-22T01:04:20;4.70;99.90
10572;DHT22;5334;48.928;12.704;2023-11-22T01:07:04;4.70;99.90
10572;DHT22;5334;48.928;12.704;2023-11-22T01:09:48;4.60;99.90
10572;DHT22;5334;48.928;12.704;2023-11-22T01:12:32;4.60;99.90
10572;DHT22;5334;48.928;12.704;2023-11-22T01:15:17;4.50;99.90
10572;DHT22;5334;48.928;12.704;2023-11-22T01:18:01;4.50;99.90
10572;DHT22;5334;48.928;12.704;2023-11-22T01:20:45;4.50;99.90
10572;DHT22;5334;48.928;12.704;2023-11-22T01:23:32;4.40;99.90
10572;DHT22;5334;48.928;12.704;2023-11-22T01:26:16;4.50;99.90
10572;DHT22;5334;48.928;12.704;2023-11-22T01:29:00;4.50;99.90
10572;DHT22;5334;48.928;12.704;2023-11-22T01:31:44;4.50;99.90
10572;DHT22;5334;48.928;12.704;2023-11-22T01:34:28;4.50;99.90
10572;DHT22;5334;48.928;12.704;2023-11-22T01:37:12;4.50;99.90
10572;DHT22;5334;48.928;12.704;2023-11-22T01:39:56;4.50;99.90
10572;DHT22;5334;48.928;12.704;2023-11-22T01:42:40;4.50;99.90
10572;DHT22;5334;48.928;12.704;2023-11-22T01:45:24;4.50;99.90
10572;DHT22;5334;48.928;12.704;2023-11-22T01:48:11;4.50;99.90
10572;DHT22;5334;48.928;12.704;2023-11-22T01:50:55;4.50;99.90
10572;DHT22;5334;48.928;12.704;2023-11-22T01:53:39;4.50;99.90
10572;DHT22;5334;48.928;12.704;2023-11-22T01:56:26;4.50;99.90
10572;DHT22;5334;48.928;12.704;2023-11-22T01:59:10;4.50;99.90
10572;DHT22;5334;48.928;12.704;2023-11-22T02:01:55;4.40;99.90
10572;DHT22;5334;48.928;12.704;2023-11-22T02:04:39;4.40;99.90
10572;DHT22;5334;48.928;12.704;2023-11-22T02:07:23;4.30;99.90
10572;DHT22;5334;48.928;12.704;2023-11-22T02:10:08;4.20;99.90
10572;DHT22;5334;48.928;12.704;2023-11-22T02:12:52;4.20;99.90
10572;DHT22;5334;48.928;12.704;2023-11-22T02:15:37;4.20;99.90
10572;DHT22;5334;48.928;12.704;2023-11-22T02:18:27;4.20;99.90
10572;DHT22;5334;48.928;12.704;2023-11-22T02:21:11;4.20;99.90
10572;DHT22;5334;48.928;12.704;2023-11-22T02:23:56;4.20;99.90
10572;DHT22;5334;48.928;12.704;2023-11-22T02:26:46;4.20;99.90
10572;DHT22;5334;48.928;12.704;2023-11-22T02:29:30;4.20;99.90
10572;DHT22;5334;48.928;12.704;2023-11-22T02:32:14;4.10;99.90
10572;DHT22;5334;48.928;12.704;2023-11-22T02:34:58;4.10;99.90
10572;DHT22;5334;48.928;12.704;2023-11-22T02:37:43;4.10;99.90
10572;DHT22;5334;48.928;12.704;2023-11-22T02:40:27;4.10;99.90
10572;DHT22;5334;48.928;12.704;2023-11-22T02:43:11;4.10;99.90
10572;DHT22;5334;48.928;12.704;2023-11-22T02:45:55;4.10;99.90
10572;DHT22;5334;48.928;12.704;2023-11-22T02:48:39;4.10;99.90
10572;DHT22;5334;48.928;12.704;2023-11-22T02:51:23;4.10;99.90
10572;DHT22;5334;48.928;12.704;2023-11-22T02:54:08;4.10;99.90
10572;DHT22;5334;48.928;12.704;2023-11-22T02:56:52;4.00;99.90
10572;DHT22;5334;48.928;12.704;2023-11-22T02:59:36;4.00;99.90
10572;DHT22;5334;48.928;12.704;2023-11-22T03:02:20;4.00;99.90
10572;DHT22;5334;48.928;12.704;2023-11-22T03:05:04;4.00;99.90
10572;DHT22;5334;48.928;12.704;2023-11-22T03:07:48;4.00;99.90
10572;DHT22;5334;48.928;12.704;2023-11-22T03:10:33;4.00;99.90
10572;DHT22;5334;48.928;12.704;2023-11-22T03:13:18;4.00;99.90
10572;DHT22;5334;48.928;12.704;2023-11-22T03:16:02;4.00;99.90
10572;DHT22;5334;48.928;12.704;2023-11-22T03:18:47;3.90;99.90
10572;DHT22;5334;48.928;12.704;2023-11-22T03:21:31;3.90;99.90
10572;DHT22;5334;48.928;12.704;2023-11-22T03:24:15;3.90;99.90
10572;DHT22;5334;48.928;12.704;2023-11-22T03:26:59;3.80;99.90
10572;DHT22;5334;48.928;12.704;2023-11-22T03:29:44;3.80;99.90
10572;DHT22;5334;48.928;12.704;2023-11-22T03:32:28;3.80;99.90
10572;DHT22;5334;48.928;12.704;2023-11-22T03:35:12;3.80;99.90
10572;DHT22;5334;48.928;12.704;2023-11-22T03:37:56;3.70;99.90
10572;DHT22;5334;48.928;12.704;2023-11-22T03:40:40;3.70;99.90
10572;DHT22;5334;48.928;12.704;2023-11-22T03:43:24;3.70;99.90
10572;DHT22;5334;48.928;12.704;2023-11-22T03:46:08;3.60;99.90
10572;DHT22;5334;48.928;12.704;2023-11-22T03:48:52;3.60;99.90
10572;DHT22;5334;48.928;12.704;2023-11-22T03:51:38;3.60;99.90
10572;DHT22;5334;48.928;12.704;2023-11-22T03:54:23;3.60;99.90
10572;DHT22;5334;48.928;12.704;2023-11-22T03:57:07;3.60;99.90
10572;DHT22;5334;48.928;12.704;2023-11-22T03:59:51;3.60;99.90
10572;DHT22;5334;48.928;12.704;2023-11-22T04:02:35;3.50;99.90
10572;DHT22;5334;48.928;12.704;2023-11-22T04:05:19;3.50;99.90
10572;DHT22;5334;48.928;12.704;2023-11-22T04:08:03;3.50;99.90
10572;DHT22;5334;48.928;12.704;2023-11-22T04:10:48;3.50;99.90
10572;DHT22;5334;48.928;12.704;2023-11-22T04:13:32;3.50;99.90
10572;DHT22;5334;48.928;12.704;2023-11-22T04:16:16;3.40;99.90
10572;DHT22;5334;48.928;12.704;2023-11-22T04:19:00;3.40;99.90
10572;DHT22;5334;48.928;12.704;2023-11-22T04:21:45;3.40;99.90
10572;DHT22;5334;48.928;12.704;2023-11-22T04:24:29;3.40;99.90
10572;DHT22;5334;48.928;12.704;2023-11-22T04:27:13;3.40;99.90
10572;DHT22;5334;48.928;12.704;2023-11-22T04:29:57;3.40;99.90
10572;DHT22;5334;48.928;12.704;2023-11-22T04:32:41;3.40;99.90
10572;DHT22;5334;48.928;12.704;2023-11-22T04:35:25;3.40;99.90
10572;DHT22;5334;48.928;12.704;2023-11-22T04:38:09;3.40;99.90
10572;DHT22;5334;48.928;12.704;2023-11-22T04:40:53;3.40;99.90
10572;DHT22;5334;48.928;12.704;2023-11-22T04:43:37;3.40;99.90
10572;DHT22;5334;48.928;12.704;2023-11-22T04:46:21;3.40;99.90
10572;DHT22;5334;48.928;12.704;2023-11-22T04:49:05;3.40;99.90
10572;DHT22;5334;48.928;12.704;2023-11-22T04:51:50;3.30;99.90
10572;DHT22;5334;48.928;12.704;2023-11-22T04:54:34;3.30;99.90
10572;DHT22;5334;48.928;12.704;2023-11-22T04:57:18;3.30;99.90
10572;DHT22;5334;48.928;12.704;2023-11-22T05:00:02;3.30;99.90
10572;DHT22;5334;48.928;12.704;2023-11-22T05:02:47;3.30;99.90
10572;DHT22;5334;48.928;12.704;2023-11-22T05:05:31;3.20;99.90
10572;DHT22;5334;48.928;12.704;2023-11-22T05:08:15;3.20;99.90
10572;DHT22;5334;48.928;12.704;2023-11-22T05:10:59;3.10;99.90
10572;DHT22;5334;48.928;12.704;2023-11-22T05:13:43;3.10;99.90
10572;DHT22;5334;48.928;12.704;2023-11-22T05:16:27;3.10;99.90
10572;DHT22;5334;48.928;12.704;2023-11-22T05:19:11;3.10;99.90
10572;DHT22;5334;48.928;12.704;2023-11-22T05:21:55;3.00;99.90
10572;DHT22;5334;48.928;12.704;2023-11-22T05:24:39;3.00;99.90
10572;DHT22;5334;48.928;12.704;2023-11-22T05:27:23;3.00;99.90
10572;DHT22;5334;48.928;12.704;2023-11-22T05:30:08;3.00;99.90
10572;DHT22;5334;48.928;12.704;2023-11-22T05:32:52;3.00;99.90
10572;DHT22;5334;48.928;12.704;2023-11-22T05:35:36;3.00;99.90
10572;DHT22;5334;48.928;12.704;2023-11-22T05:38:20;3.00;99.90
10572;DHT22;5334;48.928;12.704;2023-11-22T05:41:05;2.90;99.90
10572;DHT22;5334;48.928;12.704;2023-11-22T05:43:49;2.90;99.90
10572;DHT22;5334;48.928;12.704;2023-11-22T05:46:33;2.90;99.90
10572;DHT22;5334;48.928;12.704;2023-11-22T05:49:17;2.90;99.90
10572;DHT22;5334;48.928;12.704;2023-11-22T05:52:02;2.90;99.90
10572;DHT22;5334;48.928;12.704;2023-11-22T05:54:46;2.90;99.90
10572;DHT22;5334;48.928;12.704;2023-11-22T05:57:30;2.90;99.90
10572;DHT22;5334;48.928;12.704;2023-11-22T06:00:15;2.90;99.90
10572;DHT22;5334;48.928;12.704;2023-11-22T06:02:59;3.00;99.90
10572;DHT22;5334;48.928;12.704;2023-11-22T06:05:43;3.00;99.90
10572;DHT22;5334;48.928;12.704;2023-11-22T06:08:27;3.00;99.90
10572;DHT22;5334;48.928;12.704;2023-11-22T06:11:11;3.00;99.90
10572;DHT22;5334;48.928;12.704;2023-11-22T06:13:55;3.00;99.90
10572;DHT22;5334;48.928;12.704;2023-11-22T06:16:39;3.00;99.90
10572;DHT22;5334;48.928;12.704;2023-11-22T06:19:23;3.10;99.90
10572;DHT22;5334;48.928;12.704;2023-11-22T06:22:07;3.10;99.90
10572;DHT22;5334;48.928;12.704;2023-11-22T06:24:51;3.10;99.90
10572;DHT22;5334;48.928;12.704;2023-11-22T06:27:35;3.10;99.90
10572;DHT22;5334;48.928;12.704;2023-11-22T06:30:20;3.10;99.90
10572;DHT22;5334;48.928;12.704;2023-11-22T06:33:04;3.10;99.90
10572;DHT22;5334;48.928;12.704;2023-11-22T06:35:48;3.10;99.90
10572;DHT22;5334;48.928;12.704;2023-11-22T06:38:32;3.00;99.90
10572;DHT22;5334;48.928;12.704;2023-11-22T06:41:16;3.00;99.90
10572;DHT22;5334;48.928;12.704;2023-11-22T06:44:00;2.90;99.90
10572;DHT22;5334;48.928;12.704;2023-11-22T06:46:44;2.90;99.90
10572;DHT22;5334;48.928;12.704;2023-11-22T06:49:28;2.90;99.90
10572;DHT22;5334;48.928;12.704;2023-11-22T06:52:12;2.90;99.90
10572;DHT22;5334;48.928;12.704;2023-11-22T06:54:56;2.90;99.90
10572;DHT22;5334;48.928;12.704;2023-11-22T06:57:41;2.80;99.90
10572;DHT22;5334;48.928;12.704;2023-11-22T07:00:25;2.90;99.90
10572;DHT22;5334;48.928;12.704;2023-11-22T07:03:09;2.90;99.90
10572;DHT22;5334;48.928;12.704;2023-11-22T07:05:53;2.80;99.90
10572;DHT22;5334;48.928;12.704;2023-11-22T07:08:37;2.80;99.90
10572;DHT22;5334;48.928;12.704;2023-11-22T07:11:22;2.90;99.90
10572;DHT22;5334;48.928;12.704;2023-11-22T07:14:07;2.90;99.90
10572;DHT22;5334;48.928;12.704;2023-11-22T07:16:51;2.90;99.90
10572;DHT22;5334;48.928;12.704;2023-11-22T07:19:35;2.90;99.90
10572;DHT22;5334;48.928;12.704;2023-11-22T07:22:19;2.90;99.90
10572;DHT22;5334;48.928;12.704;2023-11-22T07:25:04;2.90;99.90
10572;DHT22;5334;48.928;12.704;2023-11-22T07:27:48;2.90;99.90
10572;DHT22;5334;48.928;12.704;2023-11-22T07:30:32;2.90;99.90
10572;DHT22;5334;48.928;12.704;2023-11-22T07:33:16;2.90;99.90
10572;DHT22;5334;48.928;12.704;2023-11-22T07:36:01;2.90;99.90
10572;DHT22;5334;48.928;12.704;2023-11-22T07:38:46;2.90;99.90
10572;DHT22;5334;48.928;12.704;2023-11-22T07:41:30;2.90;99.90
10572;DHT22;5334;48.928;12.704;2023-11-22T07:44:14;2.90;99.90
10572;DHT22;5334;48.928;12.704;2023-11-22T07:46:59;2.90;99.90
10572;DHT22;5334;48.928;12.704;2023-11-22T07:49:43;2.90;99.90
10572;DHT22;5334;48.928;12.704;2023-11-22T07:52:27;2.90;99.90
10572;DHT22;5334;48.928;12.704;2023-11-22T07:55:11;2.90;99.90
10572;DHT22;5334;48.928;12.704;2023-11-22T07:57:55;3.00;99.90
10572;DHT22;5334;48.928;12.704;2023-11-22T08:00:40;3.00;99.90
10572;DHT22;5334;48.928;12.704;2023-11-22T08:03:25;3.00;99.90
10572;DHT22;5334;48.928;12.704;2023-11-22T08:06:09;3.00;99.90
10572;DHT22;5334;48.928;12.704;2023-11-22T08:08:53;3.10;99.90
10572;DHT22;5334;48.928;12.704;2023-11-22T08:11:37;3.10;99.90
10572;DHT22;5334;48.928;12.704;2023-11-22T08:14:21;3.10;99.90
10572;DHT22;5334;48.928;12.704;2023-11-22T08:17:06;3.10;99.90
10572;DHT22;5334;48.928;12.704;2023-11-22T08:19:50;3.10;99.90
10572;DHT22;5334;48.928;12.704;2023-11-22T08:22:34;3.10;99.90
10572;DHT22;5334;48.928;12.704;2023-11-22T08:25:18;3.10;99.90
10572;DHT22;5334;48.928;12.704;2023-11-22T08:28:03;3.10;99.90
10572;DHT22;5334;48.928;12.704;2023-11-22T08:30:47;3.10;99.90
10572;DHT22;5334;48.928;12.704;2023-11-22T08:33:31;3.10;99.90
10572;DHT22;5334;48.928;12.704;2023-11-22T08:36:15;3.10;99.90
10572;DHT22;5334;48.928;12.704;2023-11-22T08:39:00;3.10;99.90
10572;DHT22;5334;48.928;12.704;2023-11-22T08:41:44;3.10;99.90
10572;DHT22;5334;48.928;12.704;2023-11-22T08:44:28;3.10;99.90
10572;DHT22;5334;48.928;12.704;2023-11-22T08:47:12;3.20;99.90
10572;DHT22;5334;48.928;12.704;2023-11-22T08:49:56;3.20;99.90
10572;DHT22;5334;48.928;12.704;2023-11-22T08:52:40;3.20;99.90
10572;DHT22;5334;48.928;12.704;2023-11-22T08:55:25;3.30;99.90
10572;DHT22;5334;48.928;12.704;2023-11-22T08:58:12;3.30;99.90
10572;DHT22;5334;48.928;12.704;2023-11-22T09:00:56;3.40;99.90
10572;DHT22;5334;48.928;12.704;2023-11-22T09:03:40;3.40;99.90
10572;DHT22;5334;48.928;12.704;2023-11-22T09:06:24;3.50;99.90
10572;DHT22;5334;48.928;12.704;2023-11-22T09:09:08;3.50;99.90
10572;DHT22;5334;48.928;12.704;2023-11-22T09:11:53;3.50;99.90
10572;DHT22;5334;48.928;12.704;2023-11-22T09:14:37;3.50;99.90
10572;DHT22;5334;48.928;12.704;2023-11-22T09:17:21;3.50;99.90
10572;DHT22;5334;48.928;12.704;2023-11-22T09:20:06;3.60;99.90
10572;DHT22;5334;48.928;12.704;2023-11-22T09:22:54;3.60;99.90
10572;DHT22;5334;48.928;12.704;2023-11-22T09:25:38;3.60;99.90
10572;DHT22;5334;48.928;12.704;2023-11-22T09:28:22;3.60;99.90
10572;DHT22;5334;48.928;12.704;2023-11-22T09:31:06;3.60;99.90
10572;DHT22;5334;48.928;12.704;2023-11-22T09:33:51;3.60;99.90
10572;DHT22;5334;48.928;12.704;2023-11-22T09:36:35;3.50;99.90
10572;DHT22;5334;48.928;12.704;2023-11-22T09:39:19;3.40;99.90
10572;DHT22;5334;48.928;12.704;2023-11-22T09:42:04;3.40;99.90
10572;DHT22;5334;48.928;12.704;2023-11-22T09:44:48;3.40;99.90
10572;DHT22;5334;48.928;12.704;2023-11-22T09:47:32;3.30;99.90
10572;DHT22;5334;48.928;12.704;2023-11-22T09:53:31;3.20;99.90
10572;DHT22;5334;48.928;12.704;2023-11-22T09:56:15;3.20;99.90
10572;DHT22;5334;48.928;12.704;2023-11-22T09:59:00;3.20;99.90
10572;DHT22;5334;48.928;12.704;2023-11-22T10:01:46;3.20;99.90
10572;DHT22;5334;48.928;12.704;2023-11-22T10:04:31;3.30;99.90
10572;DHT22;5334;48.928;12.704;2023-11-22T10:07:15;3.20;99.90
10572;DHT22;5334;48.928;12.704;2023-11-22T10:09:59;3.20;99.90
10572;DHT22;5334;48.928;12.704;2023-11-22T10:12:44;3.20;99.90
10572;DHT22;5334;48.928;12.704;2023-11-22T10:15:28;3.20;99.90
10572;DHT22;5334;48.928;12.704;2023-11-22T10:18:13;3.20;99.90
10572;DHT22;5334;48.928;12.704;2023-11-22T10:21:28;3.20;99.90
10572;DHT22;5334;48.928;12.704;2023-11-22T10:24:12;3.30;99.90
10572;DHT22;5334;48.928;12.704;2023-11-22T10:26:56;3.30;99.90
10572;DHT22;5334;48.928;12.704;2023-11-22T10:29:40;3.20;99.90
10572;DHT22;5334;48.928;12.704;2023-11-22T10:32:25;3.30;99.90
10572;DHT22;5334;48.928;12.704;2023-11-22T10:35:09;3.30;99.90
10572;DHT22;5334;48.928;12.704;2023-11-22T10:37:53;3.30;99.90
10572;DHT22;5334;48.928;12.704;2023-11-22T10:40:37;3.40;99.90
10572;DHT22;5334;48.928;12.704;2023-11-22T10:43:22;3.40;99.90
10572;DHT22;5334;48.928;12.704;2023-11-22T10:46:07;3.50;99.90
10572;DHT22;5334;48.928;12.704;2023-11-22T10:48:51;3.60;99.90
10572;DHT22;5334;48.928;12.704;2023-11-22T10:51:40;3.70;99.90
10572;DHT22;5334;48.928;12.704;2023-11-22T10:54:24;3.70;99.90
10572;DHT22;5334;48.928;12.704;2023-11-22T10:57:09;3.70;99.90
10572;DHT22;5334;48.928;12.704;2023-11-22T10:59:56;3.80;99.90
10572;DHT22;5334;48.928;12.704;2023-11-22T11:02:44;3.80;99.90
10572;DHT22;5334;48.928;12.704;2023-11-22T11:05:31;3.80;99.90
10572;DHT22;5334;48.928;12.704;2023-11-22T11:08:17;3.80;99.90
10572;DHT22;5334;48.928;12.704;2023-11-22T11:11:01;3.80;99.90
10572;DHT22;5334;48.928;12.704;2023-11-22T11:13:48;3.90;99.90
10572;DHT22;5334;48.928;12.704;2023-11-22T11:16:36;3.90;99.90
10572;DHT22;5334;48.928;12.704;2023-11-22T11:19:21;3.80;99.90
10572;DHT22;5334;48.928;12.704;2023-11-22T11:22:08;3.90;99.90
10572;DHT22;5334;48.928;12.704;2023-11-22T11:25:01;3.90;99.90
10572;DHT22;5334;48.928;12.704;2023-11-22T11:27:55;3.90;99.90
10572;DHT22;5334;48.928;12.704;2023-11-22T11:30:47;4.00;99.90
10572;DHT22;5334;48.928;12.704;2023-11-22T11:33:37;4.00;99.90
10572;DHT22;5334;48.928;12.704;2023-11-22T11:36:37;4.00;99.90
10572;DHT22;5334;48.928;12.704;2023-11-22T11:39:26;4.10;99.90
10572;DHT22;5334;48.928;12.704;2023-11-22T11:42:11;4.10;99.90
10572;DHT22;5334;48.928;12.704;2023-11-22T11:47:43;4.10;99.90
10572;DHT22;5334;48.928;12.704;2023-11-22T11:50:27;4.20;99.90
10572;DHT22;5334;48.928;12.704;2023-11-22T11:53:11;4.20;99.90
10572;DHT22;5334;48.928;12.704;2023-11-22T11:55:55;4.20;99.90
10572;DHT22;5334;48.928;12.704;2023-11-22T11:58:44;4.20;99.90
10572;DHT22;5334;48.928;12.704;2023-11-22T12:01:29;4.20;99.90
10572;DHT22;5334;48.928;12.704;2023-11-22T12:04:16;4.20;99.90
10572;DHT22;5334;48.928;12.704;2023-11-22T12:07:00;4.20;99.90
10572;DHT22;5334;48.928;12.704;2023-11-22T12:09:44;4.20;99.90
10572;DHT22;5334;48.928;12.704;2023-11-22T12:12:28;4.10;99.90
10572;DHT22;5334;48.928;12.704;2023-11-22T12:15:12;4.00;99.90
10572;DHT22;5334;48.928;12.704;2023-11-22T12:17:57;4.00;99.90
10572;DHT22;5334;48.928;12.704;2023-11-22T12:20:41;3.90;99.90
10572;DHT22;5334;48.928;12.704;2023-11-22T12:23:27;3.90;99.90
10572;DHT22;5334;48.928;12.704;2023-11-22T12:26:12;3.80;99.90
10572;DHT22;5334;48.928;12.704;2023-11-22T12:28:56;3.80;99.90
10572;DHT22;5334;48.928;12.704;2023-11-22T12:31:50;3.80;99.90
10572;DHT22;5334;48.928;12.704;2023-11-22T12:34:35;3.80;99.90
10572;DHT22;5334;48.928;12.704;2023-11-22T12:37:22;3.80;99.90
10572;DHT22;5334;48.928;12.704;2023-11-22T12:40:10;3.70;99.90
10572;DHT22;5334;48.928;12.704;2023-11-22T12:42:55;3.70;99.90
10572;DHT22;5334;48.928;12.704;2023-11-22T12:45:39;3.60;99.90
10572;DHT22;5334;48.928;12.704;2023-11-22T12:48:25;3.60;99.90
10572;DHT22;5334;48.928;12.704;2023-11-22T12:51:16;3.60;99.90
10572;DHT22;5334;48.928;12.704;2023-11-22T12:54:00;3.50;99.90
10572;DHT22;5334;48.928;12.704;2023-11-22T12:56:44;3.40;99.90
10572;DHT22;5334;48.928;12.704;2023-11-22T12:59:28;3.50;99.90
10572;DHT22;5334;48.928;12.704;2023-11-22T13:02:13;3.50;99.90
10572;DHT22;5334;48.928;12.704;2023-11-22T13:04:57;3.50;99.90
10572;DHT22;5334;48.928;12.704;2023-11-22T13:07:41;3.50;99.90
10572;DHT22;5334;48.928;12.704;2023-11-22T13:10:25;3.50;99.90
10572;DHT22;5334;48.928;12.704;2023-11-22T13:13:09;3.40;99.90
10572;DHT22;5334;48.928;12.704;2023-11-22T13:15:53;3.40;99.90
10572;DHT22;5334;48.928;12.704;2023-11-22T13:18:38;3.40;99.90
10572;DHT22;5334;48.928;12.704;2023-11-22T13:21:22;3.40;99.90
10572;DHT22;5334;48.928;12.704;2023-11-22T13:24:06;3.40;99.90
10572;DHT22;5334;48.928;12.704;2023-11-22T13:26:51;3.30;99.90
10572;DHT22;5334;48.928;12.704;2023-11-22T13:29:35;3.40;99.90
10572;DHT22;5334;48.928;12.704;2023-11-22T13:32:19;3.40;99.90
10572;DHT22;5334;48.928;12.704;2023-11-22T13:35:03;3.40;99.90
10572;DHT22;5334;48.928;12.704;2023-11-22T13:37:48;3.40;99.90
10572;DHT22;5334;48.928;12.704;2023-11-22T13:40:32;3.40;99.90
10572;DHT22;5334;48.928;12.704;2023-11-22T13:43:17;3.40;99.90
10572;DHT22;5334;48.928;12.704;2023-11-22T13:46:01;3.40;99.90
10572;DHT22;5334;48.928;12.704;2023-11-22T13:48:45;3.40;99.90
10572;DHT22;5334;48.928;12.704;2023-11-22T13:51:29;3.40;99.90
10572;DHT22;5334;48.928;12.704;2023-11-22T13:54:13;3.40;99.90
10572;DHT22;5334;48.928;12.704;2023-11-22T13:56:57;3.40;99.90
10572;DHT22;5334;48.928;12.704;2023-11-22T13:59:42;3.40;99.90
10572;DHT22;5334;48.928;12.704;2023-11-22T14:02:26;3.40;99.90
10572;DHT22;5334;48.928;12.704;2023-11-22T14:05:10;3.40;99.90
10572;DHT22;5334;48.928;12.704;2023-11-22T14:07:54;3.40;99.90
10572;DHT22;5334;48.928;12.704;2023-11-22T14:10:39;3.40;99.90
10572;DHT22;5334;48.928;12.704;2023-11-22T14:13:23;3.30;99.90
10572;DHT22;5334;48.928;12.704;2023-11-22T14:16:07;3.30;99.90
10572;DHT22;5334;48.928;12.704;2023-11-22T14:18:51;3.30;99.90
10572;DHT22;5334;48.928;12.704;2023-11-22T14:21:36;3.30;99.90
10572;DHT22;5334;48.928;12.704;2023-11-22T14:24:20;3.30;99.90
10572;DHT22;5334;48.928;12.704;2023-11-22T14:27:04;3.30;99.90
10572;DHT22;5334;48.928;12.704;2023-11-22T14:29:48;3.30;99.90
10572;DHT22;5334;48.928;12.704;2023-11-22T14:32:34;3.30;99.90
10572;DHT22;5334;48.928;12.704;2023-11-22T14:35:18;3.30;99.90
10572;DHT22;5334;48.928;12.704;2023-11-22T14:38:02;3.30;99.90
10572;DHT22;5334;48.928;12.704;2023-11-22T14:40:47;3.30;99.90
10572;DHT22;5334;48.928;12.704;2023-11-22T14:43:31;3.20;99.90
10572;DHT22;5334;48.928;12.704;2023-11-22T14:46:15;3.20;99.90
10572;DHT22;5334;48.928;12.704;2023-11-22T14:49:00;3.20;99.90
10572;DHT22;5334;48.928;12.704;2023-11-22T14:51:44;3.20;99.90
10572;DHT22;5334;48.928;12.704;2023-11-22T14:54:28;3.20;99.90
10572;DHT22;5334;48.928;12.704;2023-11-22T14:57:12;3.20;99.90
10572;DHT22;5334;48.928;12.704;2023-11-22T14:59:56;3.20;99.90
10572;DHT22;5334;48.928;12.704;2023-11-22T15:02:41;3.10;99.90
10572;DHT22;5334;48.928;12.704;2023-11-22T15:05:25;3.10;99.90
10572;DHT22;5334;48.928;12.704;2023-11-22T15:08:10;3.00;99.90
10572;DHT22;5334;48.928;12.704;2023-11-22T15:10:55;3.00;99.90
10572;DHT22;5334;48.928;12.704;2023-11-22T15:13:39;2.90;99.90
10572;DHT22;5334;48.928;12.704;2023-11-22T15:16:23;2.90;99.90
10572;DHT22;5334;48.928;12.704;2023-11-22T15:19:07;2.90;99.90
10572;DHT22;5334;48.928;12.704;2023-11-22T15:21:51;2.90;99.90
10572;DHT22;5334;48.928;12.704;2023-11-22T15:24:35;2.90;99.90
10572;DHT22;5334;48.928;12.704;2023-11-22T15:27:19;2.90;99.90
10572;DHT22;5334;48.928;12.704;2023-11-22T15:30:04;2.90;99.90
10572;DHT22;5334;48.928;12.704;2023-11-22T15:32:48;2.90;99.90
10572;DHT22;5334;48.928;12.704;2023-11-22T15:35:32;2.80;99.90
10572;DHT22;5334;48.928;12.704;2023-11-22T15:38:16;2.70;99.90
10572;DHT22;5334;48.928;12.704;2023-11-22T15:41:00;2.70;99.90
10572;DHT22;5334;48.928;12.704;2023-11-22T15:43:45;2.70;99.90
10572;DHT22;5334;48.928;12.704;2023-11-22T15:46:29;2.60;99.90
10572;DHT22;5334;48.928;12.704;2023-11-22T15:49:13;2.60;99.90
10572;DHT22;5334;48.928;12.704;2023-11-22T15:51:58;2.60;99.90
10572;DHT22;5334;48.928;12.704;2023-11-22T15:54:42;2.60;99.90
10572;DHT22;5334;48.928;12.704;2023-11-22T15:57:26;2.50;99.90
10572;DHT22;5334;48.928;12.704;2023-11-22T16:00:10;2.50;99.90
10572;DHT22;5334;48.928;12.704;2023-11-22T16:02:54;2.50;99.90
10572;DHT22;5334;48.928;12.704;2023-11-22T16:05:38;2.50;99.90
10572;DHT22;5334;48.928;12.704;2023-11-22T16:08:22;2.50;99.90
10572;DHT22;5334;48.928;12.704;2023-11-22T16:11:07;2.50;99.90
10572;DHT22;5334;48.928;12.704;2023-11-22T16:13:51;2.60;99.90
10572;DHT22;5334;48.928;12.704;2023-11-22T16:16:35;2.60;99.90
10572;DHT22;5334;48.928;12.704;2023-11-22T16:19:19;2.50;99.90
10572;DHT22;5334;48.928;12.704;2023-11-22T16:22:03;2.50;99.90
10572;DHT22;5334;48.928;12.704;2023-11-22T16:24:47;2.60;99.90
10572;DHT22;5334;48.928;12.704;2023-11-22T16:27:31;2.60;99.90
10572;DHT22;5334;48.928;12.704;2023-11-22T16:30:15;2.60;99.90
10572;DHT22;5334;48.928;12.704;2023-11-22T16:32:59;2.60;99.90
10572;DHT22;5334;48.928;12.704;2023-11-22T16:35:43;2.60;99.90
10572;DHT22;5334;48.928;12.704;2023-11-22T16:38:27;2.60;99.90
10572;DHT22;5334;48.928;12.704;2023-11-22T16:41:11;2.60;99.90
10572;DHT22;5334;48.928;12.704;2023-11-22T16:43:55;2.60;99.90
10572;DHT22;5334;48.928;12.704;2023-11-22T16:46:40;2.50;99.90
10572;DHT22;5334;48.928;12.704;2023-11-22T16:49:24;2.60;99.90
10572;DHT22;5334;48.928;12.704;2023-11-22T16:52:11;2.60;99.90
10572;DHT22;5334;48.928;12.704;2023-11-22T16:54:56;2.60;99.90
10572;DHT22;5334;48.928;12.704;2023-11-22T16:57:40;2.60;99.90
10572;DHT22;5334;48.928;12.704;2023-11-22T17:00:24;2.50;99.90
10572;DHT22;5334;48.928;12.704;2023-11-22T17:03:08;2.50;99.90
10572;DHT22;5334;48.928;12.704;2023-11-22T17:05:52;2.50;99.90
10572;DHT22;5334;48.928;12.704;2023-11-22T17:08:37;2.60;99.90
10572;DHT22;5334;48.928;12.704;2023-11-22T17:11:21;2.60;99.90
10572;DHT22;5334;48.928;12.704;2023-11-22T17:14:05;2.60;99.90
10572;DHT22;5334;48.928;12.704;2023-11-22T17:16:49;2.50;99.90
10572;DHT22;5334;48.928;12.704;2023-11-22T17:19:33;2.60;99.90
10572;DHT22;5334;48.928;12.704;2023-11-22T17:22:17;2.60;99.90
10572;DHT22;5334;48.928;12.704;2023-11-22T17:25:01;2.60;99.90
10572;DHT22;5334;48.928;12.704;2023-11-22T17:27:45;2.60;99.90
10572;DHT22;5334;48.928;12.704;2023-11-22T17:30:29;2.60;99.90
10572;DHT22;5334;48.928;12.704;2023-11-22T17:33:13;2.50;99.90
10572;DHT22;5334;48.928;12.704;2023-11-22T17:35:57;2.50;99.90
10572;DHT22;5334;48.928;12.704;2023-11-22T17:38:42;2.50;99.90
10572;DHT22;5334;48.928;12.704;2023-11-22T17:41:26;2.50;99.90